createdAt,value
2018-10-09T00:00:43.368Z,37.60
2018-10-09T00:03:48.277Z,53.33
2018-10-09T00:06:52.884Z,26.33
2018-10-09T00:09:57.475Z,76.33
2018-10-09T00:13:02.079Z,96.87
2018-10-09T00:16:06.790Z,71.80
2018-10-09T00:19:11.601Z,38.87
2018-10-09T00:22:16.507Z,18.67
2018-10-09T00:25:21.076Z,23.97
2018-10-09T00:28:25.780Z,18.73
2018-10-09T00:31:30.340Z,20.23
2018-10-09T00:34:34.981Z,29.97
2018-10-09T00:37:39.596Z,42.47
2018-10-09T00:40:44.346Z,76.57
2018-10-09T00:43:49.032Z,28.00
2018-10-09T00:46:53.669Z,26.83
2018-10-09T00:49:58.389Z,19.53
2018-10-09T00:53:03.069Z,21.07
2018-10-09T00:56:07.939Z,24.70
2018-10-09T00:59:12.702Z,28.80
2018-10-09T01:02:17.386Z,24.67
2018-10-09T01:05:22.302Z,17.97
2018-10-09T01:08:26.900Z,18.80
2018-10-09T01:11:31.698Z,19.90
2018-10-09T01:14:36.386Z,13.73
2018-10-09T01:17:40.950Z,24.70
2018-10-09T01:20:45.557Z,20.07
2018-10-09T01:23:50.215Z,13.17
2018-10-09T01:26:55.112Z,17.47
2018-10-09T01:29:59.821Z,15.37
2018-10-09T01:33:05.158Z,15.30
2018-10-09T01:36:10.065Z,19.27
2018-10-09T01:39:14.626Z,44.73
2018-10-09T01:42:19.322Z,23.47
2018-10-09T01:45:23.948Z,28.63
2018-10-09T01:48:28.629Z,16.10
2018-10-09T01:51:33.392Z,22.57
2018-10-09T01:54:37.932Z,14.47
2018-10-09T01:57:42.541Z,17.60
2018-10-09T02:00:47.310Z,37.40
2018-10-09T02:03:51.901Z,31.57
2018-10-09T02:06:56.773Z,12.93
2018-10-09T02:10:01.339Z,17.63
2018-10-09T02:13:06.041Z,15.50
2018-10-09T02:16:10.918Z,10.87
2018-10-09T02:19:15.598Z,12.73
2018-10-09T02:22:20.276Z,31.47
2018-10-09T02:25:24.803Z,18.13
2018-10-09T02:28:29.390Z,23.17
2018-10-09T02:31:34.061Z,30.23
2018-10-09T02:34:38.707Z,30.30
2018-10-09T02:37:43.886Z,18.57
2018-10-09T02:40:48.492Z,11.53
2018-10-09T02:43:53.279Z,14.30
2018-10-09T02:46:57.920Z,29.43
2018-10-09T02:50:02.670Z,48.73
2018-10-09T02:53:07.469Z,54.93
2018-10-09T02:56:12.051Z,54.27
2018-10-09T02:59:16.737Z,84.70
2018-10-09T03:02:21.467Z,56.47
2018-10-09T03:05:26.111Z,117.33
2018-10-09T03:08:30.873Z,106.37
2018-10-09T03:11:35.349Z,20.83
2018-10-09T03:14:39.974Z,63.97
2018-10-09T03:17:44.498Z,22.60
2018-10-09T03:20:49.336Z,24.13
2018-10-09T03:23:53.970Z,16.10
2018-10-09T03:26:58.530Z,12.40
2018-10-09T03:30:03.077Z,10.17
2018-10-09T03:33:07.729Z,15.10
2018-10-09T03:36:12.524Z,14.30
2018-10-09T03:39:17.120Z,52.30
2018-10-09T03:42:21.804Z,45.33
2018-10-09T03:45:26.408Z,78.37
2018-10-09T03:48:30.972Z,76.07
2018-10-09T03:51:36.230Z,55.83
2018-10-09T03:54:40.864Z,174.57
2018-10-09T03:57:45.448Z,74.23
2018-10-09T04:00:50.030Z,94.93
2018-10-09T04:03:54.805Z,105.13
2018-10-09T04:06:59.581Z,101.00
2018-10-09T04:10:04.237Z,118.17
2018-10-09T04:13:08.817Z,119.87
2018-10-09T04:16:13.536Z,107.73
2018-10-09T04:19:18.136Z,94.60
2018-10-09T04:22:23.830Z,114.43
2018-10-09T04:25:28.402Z,150.90
2018-10-09T04:28:33.083Z,135.37
2018-10-09T04:31:37.782Z,163.00
2018-10-09T04:34:42.359Z,134.37
2018-10-09T04:37:46.947Z,64.63
2018-10-09T04:40:51.572Z,70.33
2018-10-09T04:43:56.229Z,40.13
2018-10-09T04:47:00.838Z,28.83
2018-10-09T04:50:05.796Z,37.37
2018-10-09T04:53:10.958Z,49.77
2018-10-09T04:56:16.032Z,45.20
2018-10-09T04:59:20.647Z,38.80
2018-10-09T05:02:25.812Z,50.73
2018-10-09T05:05:30.670Z,52.53
2018-10-09T05:08:35.488Z,69.40
2018-10-09T05:11:40.213Z,23.67
2018-10-09T05:14:45.133Z,50.33
2018-10-09T05:17:49.787Z,40.10
2018-10-09T05:20:54.564Z,31.97
2018-10-09T05:23:59.654Z,48.20
2018-10-09T05:27:04.290Z,52.83
2018-10-09T05:30:09.332Z,18.80
2018-10-09T05:33:14.238Z,32.57
2018-10-09T05:36:18.851Z,39.17
2018-10-09T05:39:23.553Z,18.20
2018-10-09T05:42:28.539Z,16.67
2018-10-09T05:45:37.194Z,22.47
2018-10-09T05:48:42.324Z,26.53
2018-10-09T05:51:47.085Z,22.87
2018-10-09T05:54:51.897Z,136.57
2018-10-09T05:57:56.565Z,107.60
2018-10-09T06:01:08.381Z,112.67
2018-10-09T06:04:16.470Z,215.50
2018-10-09T06:07:21.199Z,219.50
2018-10-09T06:10:25.983Z,158.93
2018-10-09T06:13:30.889Z,115.07
2018-10-09T06:16:35.555Z,163.03
2018-10-09T06:19:47.133Z,65.77
2018-10-09T06:22:52.712Z,54.90
2018-10-09T06:25:57.319Z,36.33
2018-10-09T06:29:03.259Z,46.13
2018-10-09T06:32:07.910Z,59.93
2018-10-09T06:35:12.630Z,89.37
2018-10-09T06:38:17.439Z,75.13
2018-10-09T06:41:22.601Z,71.47
2018-10-09T06:44:27.235Z,59.97
2018-10-09T06:47:32.202Z,42.93
2018-10-09T06:50:36.829Z,55.20
2018-10-09T06:53:41.776Z,35.57
2018-10-09T06:56:46.448Z,40.90
2018-10-09T06:59:51.154Z,36.60
2018-10-09T07:02:55.849Z,51.27
2018-10-09T07:06:00.826Z,41.60
2018-10-09T07:09:10.404Z,34.00
2018-10-09T07:12:15.156Z,40.20
2018-10-09T07:15:19.911Z,34.47
2018-10-09T07:18:24.680Z,37.13
2018-10-09T07:21:29.301Z,41.33
2018-10-09T07:24:34.138Z,38.00
2018-10-09T07:27:38.858Z,44.03
2018-10-09T07:30:43.560Z,45.90
2018-10-09T07:33:48.394Z,50.03
2018-10-09T07:36:53.055Z,48.17
2018-10-09T07:39:57.839Z,49.33
2018-10-09T07:43:03.425Z,56.57
2018-10-09T07:46:08.263Z,43.73
2018-10-09T07:49:13.167Z,33.47
2018-10-09T07:52:18.073Z,34.93
2018-10-09T07:55:22.736Z,35.20
2018-10-09T07:58:27.303Z,32.67
2018-10-09T08:01:31.919Z,39.40
2018-10-09T08:04:36.699Z,29.00
2018-10-09T08:07:41.253Z,31.83
2018-10-09T08:10:46.239Z,29.60
2018-10-09T08:13:51.226Z,26.90
2018-10-09T08:16:56.357Z,33.47
2018-10-09T08:20:00.963Z,38.97
2018-10-09T08:23:05.728Z,52.60
2018-10-09T08:26:10.477Z,44.10
2018-10-09T08:29:15.243Z,39.80
2018-10-09T08:32:19.969Z,40.97
2018-10-09T08:35:24.503Z,45.70
2018-10-09T08:38:30.115Z,53.67
2018-10-09T08:41:34.727Z,51.40
2018-10-09T08:44:39.393Z,42.17
2018-10-09T08:47:44.111Z,45.50
2018-10-09T08:50:48.799Z,41.83
2018-10-09T08:53:53.856Z,46.57
2018-10-09T08:56:58.480Z,41.03
2018-10-09T09:00:03.132Z,44.87
2018-10-09T09:03:08.346Z,38.47
2018-10-09T09:06:12.996Z,42.87
2018-10-09T09:09:17.834Z,45.23
2018-10-09T09:12:22.642Z,43.63
2018-10-09T09:15:27.479Z,47.47
2018-10-09T09:18:32.129Z,42.80
2018-10-09T09:21:37.114Z,47.27
2018-10-09T09:24:41.853Z,31.33
2018-10-09T09:27:46.549Z,33.73
2018-10-09T09:30:51.355Z,28.87
2018-10-09T09:33:56.048Z,30.13
2018-10-09T09:37:00.738Z,27.73
2018-10-09T09:40:05.455Z,30.33
2018-10-09T09:43:10.054Z,29.80
2018-10-09T09:46:15.061Z,28.57
2018-10-09T09:49:20.094Z,25.17
2018-10-09T09:52:25.076Z,27.87
2018-10-09T09:55:29.998Z,24.80
2018-10-09T09:58:34.986Z,21.87
2018-10-09T10:01:43.904Z,26.13
2018-10-09T10:04:48.555Z,22.20
2018-10-09T10:07:53.590Z,23.10
2018-10-09T10:10:58.467Z,23.10
2018-10-09T10:14:03.193Z,22.30
2018-10-09T10:17:07.870Z,25.57
2018-10-09T10:20:13.256Z,19.60
2018-10-09T10:23:18.232Z,22.67
2018-10-09T10:26:23.065Z,21.27
2018-10-09T10:29:27.914Z,20.27
2018-10-09T10:32:32.552Z,21.07
2018-10-09T10:35:37.174Z,22.13
2018-10-09T10:38:41.833Z,21.77
2018-10-09T10:41:46.633Z,20.63
2018-10-09T10:44:51.210Z,22.07
2018-10-09T10:47:55.879Z,22.40
2018-10-09T10:51:00.571Z,23.13
2018-10-09T10:54:05.470Z,29.23
2018-10-09T10:57:10.029Z,27.43
2018-10-09T11:00:14.795Z,23.70
2018-10-09T11:03:19.497Z,26.63
2018-10-09T11:06:24.215Z,25.93
2018-10-09T11:09:28.899Z,27.80
2018-10-09T11:12:33.535Z,25.73
2018-10-09T11:15:38.155Z,29.07
2018-10-09T11:18:42.977Z,37.20
2018-10-09T11:21:47.770Z,30.57
2018-10-09T11:24:53.263Z,26.00
2018-10-09T11:27:57.838Z,29.73
2018-10-09T11:31:02.456Z,32.93
2018-10-09T11:34:07.194Z,27.97
2018-10-09T11:37:12.451Z,29.53
2018-10-09T11:40:17.431Z,31.37
2018-10-09T11:43:22.020Z,29.40
2018-10-09T11:46:26.818Z,30.83
2018-10-09T11:49:31.648Z,30.53
2018-10-09T11:52:36.478Z,30.47
2018-10-09T11:55:41.081Z,29.77
2018-10-09T11:58:45.900Z,31.27
2018-10-09T12:01:50.669Z,29.27
2018-10-09T12:04:55.288Z,28.53
2018-10-09T12:07:59.897Z,28.73
2018-10-09T12:11:04.994Z,28.50
2018-10-09T12:14:09.973Z,31.87
2018-10-09T12:17:14.593Z,27.10
2018-10-09T12:20:19.417Z,28.83
2018-10-09T12:23:24.109Z,26.70
2018-10-09T12:26:28.892Z,28.70
2018-10-09T12:29:33.667Z,29.00
2018-10-09T12:32:38.223Z,30.33
2018-10-09T12:35:43.856Z,29.37
2018-10-09T12:38:48.600Z,30.47
2018-10-09T12:41:53.261Z,27.23
2018-10-09T12:44:58.009Z,29.67
2018-10-09T12:48:02.838Z,26.00
2018-10-09T12:51:07.752Z,30.27
2018-10-09T12:54:12.480Z,30.40
2018-10-09T12:57:17.804Z,25.80
2018-10-09T13:00:22.937Z,26.53
2018-10-09T13:03:27.581Z,28.47
2018-10-09T13:06:32.321Z,29.10
2018-10-09T13:09:37.396Z,26.57
2018-10-09T13:12:42.306Z,24.00
2018-10-09T13:15:46.999Z,23.23
2018-10-09T13:18:51.910Z,25.67
2018-10-09T13:21:56.962Z,24.10
2018-10-09T13:25:01.453Z,26.73
2018-10-09T13:28:06.369Z,23.00
2018-10-09T13:31:11.283Z,23.20
2018-10-09T13:34:15.935Z,21.03
2018-10-09T13:37:20.549Z,20.73
2018-10-09T13:40:25.151Z,21.40
2018-10-09T13:43:29.889Z,20.77
2018-10-09T13:46:35.028Z,21.30
2018-10-09T13:49:39.815Z,21.33
2018-10-09T13:52:44.594Z,21.93
2018-10-09T13:55:49.329Z,21.53
2018-10-09T13:58:54.219Z,20.60
2018-10-09T14:01:58.962Z,20.53
2018-10-09T14:05:03.798Z,18.97
2018-10-09T14:08:08.560Z,17.27
2018-10-09T14:11:13.280Z,18.03
2018-10-09T14:14:18.061Z,17.83
2018-10-09T14:17:22.884Z,15.90
2018-10-09T14:20:27.826Z,17.33
2018-10-09T14:23:32.529Z,17.00
2018-10-09T14:26:37.610Z,16.23
2018-10-09T14:29:44.853Z,15.90
2018-10-09T14:32:49.549Z,18.00
2018-10-09T14:35:54.305Z,16.00
2018-10-09T14:38:58.990Z,17.23
2018-10-09T14:42:03.533Z,15.50
2018-10-09T14:45:08.297Z,15.07
2018-10-09T14:48:12.955Z,15.13
2018-10-09T14:51:17.639Z,15.97
2018-10-09T14:54:22.454Z,16.37
2018-10-09T14:57:27.142Z,14.80
2018-10-09T15:00:31.853Z,17.60
2018-10-09T15:03:36.468Z,14.43
2018-10-09T15:06:42.258Z,13.80
2018-10-09T15:09:54.344Z,14.50
2018-10-09T15:12:59.763Z,14.70
2018-10-09T15:16:04.450Z,14.47
2018-10-09T15:19:09.501Z,18.27
2018-10-09T15:22:14.297Z,14.00
2018-10-09T15:25:19.431Z,14.53
2018-10-09T15:28:24.229Z,15.17
2018-10-09T15:31:29.055Z,17.50
2018-10-09T15:34:33.877Z,13.77
2018-10-09T15:37:38.629Z,13.83
2018-10-09T15:40:43.647Z,13.43
2018-10-09T15:43:48.509Z,13.90
2018-10-09T15:46:53.299Z,15.83
2018-10-09T15:49:58.082Z,13.10
2018-10-09T15:53:02.882Z,14.20
2018-10-09T15:56:07.844Z,13.70
2018-10-09T15:59:13.453Z,14.57
2018-10-09T16:02:18.370Z,13.93
2018-10-09T16:05:23.062Z,13.10
2018-10-09T16:08:27.664Z,14.07
2018-10-09T16:11:32.473Z,13.57
2018-10-09T16:14:37.058Z,15.13
2018-10-09T16:17:42.180Z,14.80
2018-10-09T16:20:46.816Z,14.83
2018-10-09T16:23:51.278Z,14.30
2018-10-09T16:26:55.933Z,15.83
2018-10-09T16:30:00.618Z,15.00
2018-10-09T16:33:05.995Z,16.07
2018-10-09T16:36:10.903Z,16.33
2018-10-09T16:39:15.585Z,17.50
2018-10-09T16:42:20.296Z,15.83
2018-10-09T16:45:24.937Z,18.43
2018-10-09T16:48:29.652Z,19.40
2018-10-09T16:51:34.289Z,18.70
2018-10-09T16:54:39.190Z,20.80
2018-10-09T16:57:43.995Z,22.80
2018-10-09T17:00:48.831Z,24.20
2018-10-09T17:03:53.695Z,21.53
2018-10-09T17:06:58.320Z,19.97
2018-10-09T17:10:03.260Z,21.03
2018-10-09T17:13:08.145Z,19.37
2018-10-09T17:16:13.080Z,20.97
2018-10-09T17:19:17.800Z,20.23
2018-10-09T17:22:22.715Z,23.10
2018-10-09T17:25:27.367Z,25.23
2018-10-09T17:28:32.134Z,27.93
2018-10-09T17:31:36.895Z,29.17
2018-10-09T17:34:41.481Z,28.33
2018-10-09T17:37:46.223Z,28.43
2018-10-09T17:40:50.988Z,29.60
2018-10-09T17:43:55.662Z,22.47
2018-10-09T17:47:04.516Z,29.53
2018-10-09T17:50:09.727Z,25.23
2018-10-09T17:53:14.608Z,23.00
2018-10-09T17:56:19.476Z,27.37
2018-10-09T17:59:24.085Z,31.63
2018-10-09T18:02:28.748Z,33.93
2018-10-09T18:05:33.357Z,31.77
2018-10-09T18:08:38.125Z,29.80
2018-10-09T18:11:42.720Z,28.50
2018-10-09T18:14:47.463Z,28.17
2018-10-09T18:17:52.200Z,26.40
2018-10-09T18:20:56.819Z,30.57
2018-10-09T18:24:01.455Z,27.13
2018-10-09T18:27:06.335Z,27.53
2018-10-09T18:30:11.637Z,26.30
2018-10-09T18:33:16.836Z,26.53
2018-10-09T18:36:21.483Z,26.30
2018-10-09T18:39:26.520Z,24.60
2018-10-09T18:42:31.584Z,26.67
2018-10-09T18:45:36.645Z,25.73
2018-10-09T18:48:41.629Z,27.03
2018-10-09T18:51:46.453Z,31.53
2018-10-09T18:54:51.547Z,32.73
2018-10-09T18:57:56.297Z,39.67
2018-10-09T19:01:01.330Z,43.03
2018-10-09T19:04:06.054Z,45.30
2018-10-09T19:07:10.925Z,42.93
2018-10-09T19:10:15.756Z,42.83
2018-10-09T19:13:20.806Z,41.10
2018-10-09T19:16:26.120Z,37.27
2018-10-09T19:19:30.954Z,40.57
2018-10-09T19:22:36.000Z,31.80
2018-10-09T19:25:40.931Z,33.47
2018-10-09T19:28:45.669Z,32.23
2018-10-09T19:31:50.587Z,30.77
2018-10-09T19:34:55.340Z,34.53
2018-10-09T19:38:00.321Z,34.07
2018-10-09T19:41:05.134Z,29.70
2018-10-09T19:44:09.990Z,33.57
2018-10-09T19:47:14.796Z,35.17
2018-10-09T19:50:19.629Z,42.57
2018-10-09T19:53:24.559Z,47.20
2018-10-09T19:56:29.318Z,59.50
2018-10-09T19:59:34.126Z,58.20
2018-10-09T20:02:38.908Z,65.37
2018-10-09T20:05:45.114Z,64.80
2018-10-09T20:08:50.258Z,64.17
2018-10-09T20:11:54.927Z,50.57
2018-10-09T20:14:59.863Z,44.47
2018-10-09T20:18:04.611Z,41.00
2018-10-09T20:21:09.813Z,38.50
2018-10-09T20:24:14.706Z,41.83
2018-10-09T20:27:19.387Z,38.53
2018-10-09T20:30:23.963Z,39.07
2018-10-09T20:33:28.827Z,36.73
2018-10-09T20:36:33.455Z,44.33
2018-10-09T20:39:38.087Z,39.87
2018-10-09T20:42:42.847Z,46.13
2018-10-09T20:45:47.418Z,39.80
2018-10-09T20:48:52.103Z,43.30
2018-10-09T20:51:56.797Z,46.47
2018-10-09T20:55:01.485Z,42.47
2018-10-09T20:58:06.272Z,52.00
2018-10-09T21:01:10.852Z,42.50
2018-10-09T21:04:15.516Z,44.87
2018-10-09T21:07:20.074Z,45.97
2018-10-09T21:10:24.774Z,30.80
2018-10-09T21:13:29.447Z,38.97
2018-10-09T21:16:34.053Z,32.23
2018-10-09T21:19:39.021Z,42.57
2018-10-09T21:22:43.631Z,65.00
2018-10-09T21:25:48.203Z,44.70
2018-10-09T21:28:52.806Z,52.57
2018-10-09T21:31:57.396Z,55.00
2018-10-09T21:35:02.181Z,71.20
2018-10-09T21:38:07.113Z,46.83
2018-10-09T21:41:11.798Z,49.97
2018-10-09T21:44:16.512Z,57.17
2018-10-09T21:47:21.177Z,52.10
2018-10-09T21:50:25.963Z,122.43
2018-10-09T21:53:30.622Z,78.50
2018-10-09T21:56:35.268Z,55.53
2018-10-09T21:59:39.927Z,43.00
2018-10-09T22:02:44.609Z,42.20
2018-10-09T22:05:49.177Z,39.67
2018-10-09T22:08:53.855Z,43.20
2018-10-09T22:11:58.408Z,41.20
2018-10-09T22:15:03.110Z,44.23
2018-10-09T22:18:07.724Z,45.30
2018-10-09T22:21:12.478Z,79.67
2018-10-09T22:24:17.524Z,125.73
2018-10-09T22:27:22.732Z,150.90
2018-10-09T22:30:27.348Z,145.30
2018-10-09T22:33:31.901Z,118.33
2018-10-09T22:36:36.475Z,127.37
2018-10-09T22:39:41.225Z,121.70
2018-10-09T22:42:45.901Z,137.13
2018-10-09T22:45:50.485Z,122.63
2018-10-09T22:48:55.175Z,69.73
2018-10-09T22:51:59.965Z,99.50
2018-10-09T22:55:04.787Z,106.37
2018-10-09T22:58:09.373Z,138.93
2018-10-09T23:01:13.975Z,131.93
2018-10-09T23:04:18.689Z,71.40
2018-10-09T23:07:23.710Z,151.07
2018-10-09T23:10:28.375Z,110.80
2018-10-09T23:13:33.166Z,117.17
2018-10-09T23:16:38.355Z,99.23
2018-10-09T23:19:42.969Z,92.07
2018-10-09T23:22:47.605Z,110.37
2018-10-09T23:25:52.541Z,92.20
2018-10-09T23:28:57.198Z,150.90
2018-10-09T23:32:01.733Z,133.90
2018-10-09T23:35:06.562Z,139.20
2018-10-09T23:38:11.138Z,88.47
2018-10-09T23:41:15.859Z,97.13
2018-10-09T23:44:20.596Z,93.47
2018-10-09T23:47:25.222Z,111.13
2018-10-09T23:50:29.896Z,93.30
2018-10-09T23:53:34.740Z,124.57
2018-10-09T23:56:39.421Z,97.30
2018-10-09T23:59:44.066Z,166.17
